createdAt,value
2018-12-31T00:01:46.398Z,17.27
2018-12-31T00:04:15.046Z,16.00
2018-12-31T00:06:43.572Z,15.47
2018-12-31T00:09:12.208Z,17.00
2018-12-31T00:11:43.722Z,15.53
2018-12-31T00:14:12.437Z,16.30
2018-12-31T00:16:41.155Z,16.73
2018-12-31T00:19:09.615Z,17.30
2018-12-31T00:21:38.096Z,14.00
2018-12-31T00:24:06.556Z,14.57
2018-12-31T00:26:35.035Z,15.23
2018-12-31T00:29:03.609Z,17.50
2018-12-31T00:31:32.146Z,14.00
2018-12-31T00:34:00.622Z,15.20
2018-12-31T00:36:29.189Z,17.53
2018-12-31T00:38:57.765Z,16.77
2018-12-31T00:41:26.245Z,16.07
2018-12-31T00:43:54.794Z,13.03
2018-12-31T00:46:23.394Z,13.13
2018-12-31T00:48:51.852Z,14.77
2018-12-31T00:51:23.198Z,13.23
2018-12-31T00:53:51.783Z,16.33
2018-12-31T00:56:20.271Z,13.77
2018-12-31T00:58:48.994Z,12.30
2018-12-31T01:01:17.603Z,13.67
2018-12-31T01:03:46.079Z,13.87
2018-12-31T01:06:14.771Z,13.73
2018-12-31T01:08:43.377Z,13.23
2018-12-31T01:11:11.858Z,13.13
2018-12-31T01:13:40.414Z,14.27
2018-12-31T01:16:08.959Z,13.47
2018-12-31T01:18:37.460Z,16.10
2018-12-31T01:21:06.006Z,14.20
2018-12-31T01:23:34.519Z,14.23
2018-12-31T01:26:03.078Z,13.17
2018-12-31T01:28:31.532Z,14.20
2018-12-31T01:31:02.588Z,13.07
2018-12-31T01:33:31.190Z,13.17
2018-12-31T01:35:59.799Z,12.87
2018-12-31T01:38:28.462Z,14.53
2018-12-31T01:40:57.100Z,13.10
2018-12-31T01:43:25.764Z,13.77
2018-12-31T01:45:54.246Z,15.13
2018-12-31T01:48:22.715Z,15.13
2018-12-31T01:50:51.252Z,16.23
2018-12-31T01:53:20.055Z,17.87
2018-12-31T01:55:48.589Z,17.10
2018-12-31T01:58:17.196Z,19.53
2018-12-31T02:00:45.699Z,21.53
2018-12-31T02:03:14.179Z,19.53
2018-12-31T02:05:42.744Z,22.23
2018-12-31T02:08:11.300Z,25.33
2018-12-31T02:10:39.808Z,25.50
2018-12-31T02:13:08.262Z,25.23
2018-12-31T02:15:36.874Z,28.33
2018-12-31T02:18:05.458Z,28.60
2018-12-31T02:20:34.228Z,28.20
2018-12-31T02:23:02.956Z,28.60
2018-12-31T02:25:31.648Z,32.60
2018-12-31T02:28:00.125Z,30.93
2018-12-31T02:30:28.761Z,29.03
2018-12-31T02:32:58.779Z,29.60
2018-12-31T02:35:27.204Z,31.87
2018-12-31T02:37:55.690Z,31.97
2018-12-31T02:40:24.228Z,30.27
2018-12-31T02:42:52.812Z,31.23
2018-12-31T02:45:21.296Z,31.10
2018-12-31T02:47:49.760Z,33.27
2018-12-31T02:50:18.319Z,33.93
2018-12-31T02:52:46.792Z,32.87
2018-12-31T02:55:15.416Z,31.20
2018-12-31T02:57:43.876Z,28.87
2018-12-31T03:00:12.593Z,34.50
2018-12-31T03:02:41.204Z,32.43
2018-12-31T03:05:09.770Z,28.80
2018-12-31T03:07:40.950Z,32.33
2018-12-31T03:10:10.110Z,33.03
2018-12-31T03:12:38.721Z,27.37
2018-12-31T03:15:07.342Z,31.27
2018-12-31T03:17:35.880Z,29.80
2018-12-31T03:20:04.733Z,30.07
2018-12-31T03:22:33.464Z,29.77
2018-12-31T03:25:02.020Z,28.83
2018-12-31T03:27:34.355Z,31.53
2018-12-31T03:30:05.836Z,28.10
2018-12-31T03:32:34.388Z,29.33
2018-12-31T03:35:03.111Z,31.07
2018-12-31T03:37:31.834Z,31.80
2018-12-31T03:40:00.497Z,33.73
2018-12-31T03:42:29.106Z,28.80
2018-12-31T03:44:57.619Z,29.27
2018-12-31T03:47:26.364Z,29.47
2018-12-31T03:49:54.839Z,29.03
2018-12-31T03:52:23.527Z,28.33
2018-12-31T03:54:52.079Z,28.40
2018-12-31T03:57:20.633Z,32.33
2018-12-31T03:59:49.141Z,28.73
2018-12-31T04:02:17.802Z,27.10
2018-12-31T04:04:46.395Z,31.43
2018-12-31T04:07:15.407Z,29.10
2018-12-31T04:09:43.985Z,32.80
2018-12-31T04:12:12.470Z,31.20
2018-12-31T04:14:40.950Z,30.63
2018-12-31T04:17:09.593Z,30.70
2018-12-31T04:19:38.100Z,32.87
2018-12-31T04:22:06.558Z,28.73
2018-12-31T04:24:35.103Z,30.30
2018-12-31T04:27:03.612Z,30.27
2018-12-31T04:29:32.077Z,29.47
2018-12-31T04:32:00.519Z,29.07
2018-12-31T04:34:28.985Z,27.17
2018-12-31T04:36:57.505Z,30.60
2018-12-31T04:39:26.011Z,27.87
2018-12-31T04:41:55.479Z,31.07
2018-12-31T04:44:24.093Z,28.67
2018-12-31T04:46:52.551Z,30.63
2018-12-31T04:49:21.060Z,26.70
2018-12-31T04:51:49.608Z,29.07
2018-12-31T04:54:18.099Z,27.40
2018-12-31T04:56:46.961Z,26.67
2018-12-31T04:59:15.717Z,29.90
2018-12-31T05:01:44.288Z,26.93
2018-12-31T05:04:12.754Z,24.30
2018-12-31T05:06:41.402Z,27.50
2018-12-31T05:09:09.882Z,26.43
2018-12-31T05:11:38.389Z,22.10
2018-12-31T05:14:06.908Z,24.63
2018-12-31T05:16:35.401Z,23.60
2018-12-31T05:19:03.968Z,23.43
2018-12-31T05:21:32.458Z,22.93
2018-12-31T05:24:01.043Z,24.30
2018-12-31T05:26:29.729Z,24.03
2018-12-31T05:28:58.284Z,24.00
2018-12-31T05:31:26.792Z,26.77
2018-12-31T05:33:55.247Z,27.27
2018-12-31T05:36:23.707Z,26.10
2018-12-31T05:38:52.183Z,22.70
2018-12-31T05:41:20.648Z,25.87
2018-12-31T05:43:49.101Z,22.63
2018-12-31T05:46:17.591Z,20.27
2018-12-31T05:48:46.033Z,19.23
2018-12-31T05:51:14.655Z,21.30
2018-12-31T05:53:43.201Z,20.37
2018-12-31T05:56:11.693Z,20.20
2018-12-31T05:58:40.291Z,20.27
2018-12-31T06:01:08.847Z,23.00
2018-12-31T06:03:37.465Z,20.10
2018-12-31T06:06:06.314Z,19.53
2018-12-31T06:08:34.870Z,18.20
2018-12-31T06:11:03.455Z,17.73
2018-12-31T06:13:31.905Z,16.33
2018-12-31T06:16:00.444Z,17.90
2018-12-31T06:18:28.959Z,17.53
2018-12-31T06:20:57.593Z,17.57
2018-12-31T06:23:26.119Z,16.10
2018-12-31T06:25:54.599Z,15.70
2018-12-31T06:28:23.054Z,16.33
2018-12-31T06:30:51.540Z,15.47
2018-12-31T06:33:20.044Z,14.97
2018-12-31T06:35:48.501Z,15.97
2018-12-31T06:38:17.011Z,15.67
2018-12-31T06:40:47.182Z,15.07
2018-12-31T06:43:15.993Z,14.20
2018-12-31T06:45:44.501Z,14.13
2018-12-31T06:48:13.770Z,12.20
2018-12-31T06:50:42.251Z,11.23
2018-12-31T06:53:10.736Z,14.70
2018-12-31T06:55:39.237Z,13.60
2018-12-31T06:58:09.312Z,12.53
2018-12-31T07:00:37.735Z,10.97
2018-12-31T07:03:06.299Z,13.70
2018-12-31T07:05:34.803Z,12.67
2018-12-31T07:08:03.261Z,12.37
2018-12-31T07:10:31.846Z,11.57
2018-12-31T07:13:00.309Z,12.03
2018-12-31T07:15:28.726Z,9.77
2018-12-31T07:17:57.196Z,13.20
2018-12-31T07:20:25.692Z,12.30
2018-12-31T07:22:54.338Z,12.97
2018-12-31T07:25:22.805Z,12.77
2018-12-31T07:27:51.288Z,12.33
2018-12-31T07:30:19.798Z,15.13
2018-12-31T07:32:48.283Z,14.17
2018-12-31T07:35:16.906Z,16.40
2018-12-31T07:37:45.356Z,15.00
2018-12-31T07:40:13.951Z,16.50
2018-12-31T07:42:42.433Z,16.77
2018-12-31T07:45:10.969Z,20.10
2018-12-31T07:47:39.413Z,18.60
2018-12-31T07:50:07.880Z,17.20
2018-12-31T07:52:36.370Z,19.83
2018-12-31T07:55:05.170Z,19.80
2018-12-31T07:57:33.880Z,21.70
2018-12-31T08:00:02.480Z,22.30
2018-12-31T08:02:31.057Z,24.70
2018-12-31T08:04:59.864Z,22.40
2018-12-31T08:07:28.640Z,22.93
2018-12-31T08:09:57.154Z,24.30
2018-12-31T08:12:25.719Z,20.90
2018-12-31T08:14:54.176Z,20.33
2018-12-31T08:17:22.621Z,23.87
2018-12-31T08:19:51.105Z,21.13
2018-12-31T08:22:19.594Z,20.20
2018-12-31T08:24:48.068Z,20.83
2018-12-31T08:27:16.602Z,21.03
2018-12-31T08:29:45.109Z,21.97
2018-12-31T08:32:14.512Z,19.87
2018-12-31T08:34:43.086Z,20.40
2018-12-31T08:37:11.550Z,18.23
2018-12-31T08:39:40.155Z,17.30
2018-12-31T08:42:08.667Z,16.30
2018-12-31T08:44:37.351Z,19.07
2018-12-31T08:47:06.043Z,16.67
2018-12-31T08:49:36.187Z,15.70
2018-12-31T08:52:04.880Z,15.73
2018-12-31T08:54:33.353Z,14.67
2018-12-31T08:57:01.859Z,16.03
2018-12-31T08:59:30.395Z,15.23
2018-12-31T09:01:58.895Z,12.73
2018-12-31T09:04:27.375Z,15.33
2018-12-31T09:06:55.913Z,14.03
2018-12-31T09:09:24.462Z,14.10
2018-12-31T09:11:52.967Z,13.67
2018-12-31T09:14:21.431Z,15.37
2018-12-31T09:16:52.042Z,14.70
2018-12-31T09:19:20.614Z,13.00
2018-12-31T09:21:49.226Z,13.50
2018-12-31T09:24:17.807Z,14.97
2018-12-31T09:26:46.293Z,13.93
2018-12-31T09:29:14.977Z,13.20
2018-12-31T09:31:43.767Z,12.93
2018-12-31T09:34:12.316Z,11.20
2018-12-31T09:36:40.907Z,14.53
2018-12-31T09:39:09.465Z,12.20
2018-12-31T09:41:38.005Z,12.80
2018-12-31T09:44:06.568Z,11.30
2018-12-31T09:46:35.098Z,13.17
2018-12-31T09:49:03.579Z,11.77
2018-12-31T09:51:32.059Z,10.77
2018-12-31T09:54:00.693Z,12.90
2018-12-31T09:56:29.217Z,11.20
2018-12-31T09:58:57.816Z,12.33
2018-12-31T10:01:26.374Z,10.70
2018-12-31T10:03:54.950Z,13.10
2018-12-31T10:06:23.530Z,13.93
2018-12-31T10:08:53.466Z,13.67
2018-12-31T10:11:21.934Z,13.30
2018-12-31T10:13:50.511Z,12.97
2018-12-31T10:16:19.162Z,13.93
2018-12-31T10:18:48.000Z,13.97
2018-12-31T10:21:16.622Z,13.57
2018-12-31T10:23:45.157Z,14.03
2018-12-31T10:26:13.741Z,15.27
2018-12-31T10:28:42.227Z,15.10
2018-12-31T10:31:10.944Z,14.73
2018-12-31T10:33:39.416Z,16.80
2018-12-31T10:36:08.068Z,15.37
2018-12-31T10:38:36.610Z,13.70
2018-12-31T10:41:05.076Z,16.20
2018-12-31T10:43:33.569Z,15.23
2018-12-31T10:46:02.087Z,16.33
2018-12-31T10:48:30.585Z,14.57
2018-12-31T10:50:59.093Z,15.17
2018-12-31T10:53:27.741Z,14.83
2018-12-31T10:55:56.704Z,15.63
2018-12-31T10:58:25.397Z,15.13
2018-12-31T11:00:54.040Z,14.67
2018-12-31T11:03:22.581Z,13.67
2018-12-31T11:05:51.148Z,13.80
2018-12-31T11:08:19.729Z,15.80
2018-12-31T11:10:48.273Z,14.23
2018-12-31T11:13:16.896Z,13.40
2018-12-31T11:15:45.460Z,14.53
2018-12-31T11:18:14.148Z,14.83
2018-12-31T11:20:42.729Z,15.47
2018-12-31T11:23:12.242Z,15.27
2018-12-31T11:25:40.727Z,15.07
2018-12-31T11:28:09.213Z,17.40
2018-12-31T11:30:37.715Z,15.17
2018-12-31T11:33:06.519Z,14.97
2018-12-31T11:35:35.257Z,13.67
2018-12-31T11:38:03.818Z,13.33
2018-12-31T11:40:32.417Z,14.20
2018-12-31T11:43:00.997Z,14.30
2018-12-31T11:45:29.485Z,14.43
2018-12-31T11:47:58.070Z,13.20
2018-12-31T11:50:26.547Z,14.13
2018-12-31T11:52:55.017Z,12.30
2018-12-31T11:55:23.554Z,15.30
2018-12-31T12:04:12.712Z,14.77
2018-12-31T12:06:41.196Z,12.30
2018-12-31T12:09:09.808Z,13.67
2018-12-31T12:11:38.346Z,14.50
2018-12-31T12:14:06.840Z,12.87
2018-12-31T12:16:35.402Z,10.73
2018-12-31T12:19:03.983Z,11.90
2018-12-31T12:21:32.427Z,12.07
2018-12-31T12:24:00.927Z,14.00
2018-12-31T12:26:29.411Z,11.50
2018-12-31T12:28:57.879Z,15.33
2018-12-31T12:31:26.317Z,14.97
2018-12-31T12:33:54.763Z,13.80
2018-12-31T12:36:23.244Z,16.13
2018-12-31T12:38:51.675Z,16.20
2018-12-31T12:41:20.161Z,16.57
2018-12-31T12:43:48.611Z,17.40
2018-12-31T12:46:17.145Z,16.30
2018-12-31T12:48:45.647Z,16.10
2018-12-31T12:51:14.119Z,21.67
2018-12-31T12:53:42.724Z,18.30
2018-12-31T12:56:12.716Z,15.83
2018-12-31T12:58:41.269Z,15.13
2018-12-31T13:01:09.733Z,15.33
2018-12-31T13:03:38.170Z,15.27
2018-12-31T13:06:06.628Z,14.00
2018-12-31T13:08:35.056Z,14.37
2018-12-31T13:11:03.671Z,15.47
2018-12-31T13:13:32.130Z,13.40
2018-12-31T13:16:00.574Z,14.20
2018-12-31T13:18:29.137Z,14.70
2018-12-31T13:20:57.556Z,13.40
2018-12-31T13:23:26.407Z,13.40
2018-12-31T13:25:54.893Z,13.07
2018-12-31T13:28:23.332Z,14.40
2018-12-31T13:30:51.860Z,14.27
2018-12-31T13:33:20.331Z,13.70
2018-12-31T13:35:49.125Z,16.87
2018-12-31T13:38:17.760Z,15.77
2018-12-31T13:40:46.231Z,14.93
2018-12-31T13:43:14.834Z,18.50
2018-12-31T13:45:43.382Z,16.07
2018-12-31T13:48:11.844Z,15.03
2018-12-31T13:50:40.339Z,18.93
2018-12-31T13:53:08.805Z,20.60
2018-12-31T13:55:37.267Z,17.23
2018-12-31T13:58:05.719Z,15.50
2018-12-31T14:00:35.019Z,16.30
2018-12-31T14:03:03.497Z,14.57
2018-12-31T14:05:31.925Z,19.77
2018-12-31T14:08:00.400Z,19.40
2018-12-31T14:10:28.922Z,18.60
2018-12-31T14:12:57.349Z,18.23
2018-12-31T14:15:25.863Z,18.40
2018-12-31T14:17:54.381Z,20.43
2018-12-31T14:20:22.834Z,16.83
2018-12-31T14:22:51.405Z,15.67
2018-12-31T14:25:19.852Z,20.23
2018-12-31T14:27:48.285Z,19.70
2018-12-31T14:30:17.013Z,19.17
2018-12-31T14:32:45.529Z,21.33
2018-12-31T14:35:13.972Z,21.50
2018-12-31T14:37:42.417Z,24.10
2018-12-31T14:40:10.894Z,21.47
2018-12-31T14:42:39.351Z,21.97
2018-12-31T14:45:07.835Z,20.40
2018-12-31T14:47:36.299Z,21.50
2018-12-31T14:50:05.962Z,21.23
2018-12-31T14:52:34.590Z,21.53
2018-12-31T14:55:03.094Z,20.83
2018-12-31T14:57:31.605Z,19.27
2018-12-31T15:00:00.169Z,19.60
2018-12-31T15:02:28.625Z,22.73
2018-12-31T15:04:57.463Z,20.00
2018-12-31T15:07:25.920Z,19.60
2018-12-31T15:09:54.347Z,18.43
2018-12-31T15:12:22.857Z,19.70
2018-12-31T15:14:51.300Z,20.23
2018-12-31T15:17:19.918Z,19.47
2018-12-31T15:19:48.530Z,19.30
2018-12-31T15:22:17.010Z,18.70
2018-12-31T15:24:45.459Z,18.17
2018-12-31T15:27:13.922Z,18.20
2018-12-31T15:29:42.385Z,17.70
2018-12-31T15:32:10.869Z,18.20
2018-12-31T15:34:39.412Z,15.43
2018-12-31T15:37:08.008Z,17.70
2018-12-31T15:39:36.603Z,17.97
2018-12-31T15:42:05.140Z,15.90
2018-12-31T15:44:33.582Z,17.90
2018-12-31T15:47:02.100Z,17.53
2018-12-31T15:49:32.037Z,16.73
2018-12-31T15:52:00.540Z,13.43
2018-12-31T15:54:29.115Z,16.57
2018-12-31T15:56:57.631Z,16.83
2018-12-31T15:59:26.314Z,14.93
2018-12-31T16:01:54.778Z,15.80
2018-12-31T16:04:23.232Z,15.63
2018-12-31T16:06:51.717Z,18.40
2018-12-31T16:09:20.596Z,17.07
2018-12-31T16:11:49.114Z,16.33
2018-12-31T16:14:17.726Z,18.80
2018-12-31T16:16:46.181Z,18.83
2018-12-31T16:19:14.792Z,20.13
2018-12-31T16:21:43.532Z,20.33
2018-12-31T16:24:12.013Z,19.40
2018-12-31T16:26:40.494Z,19.57
2018-12-31T16:29:08.961Z,19.03
2018-12-31T16:31:37.508Z,20.00
2018-12-31T16:34:05.927Z,22.37
2018-12-31T16:36:34.423Z,20.10
2018-12-31T16:39:03.826Z,21.63
2018-12-31T16:41:32.284Z,21.83
2018-12-31T16:44:00.794Z,22.47
2018-12-31T16:46:29.229Z,21.03
2018-12-31T16:48:57.661Z,21.93
2018-12-31T16:51:26.216Z,24.83
2018-12-31T16:53:54.641Z,23.50
2018-12-31T16:56:23.084Z,24.77
2018-12-31T16:58:51.545Z,24.80
2018-12-31T17:01:20.267Z,24.57
2018-12-31T17:03:48.724Z,22.97
2018-12-31T17:06:17.230Z,22.83
2018-12-31T17:08:45.726Z,23.70
2018-12-31T17:11:14.177Z,24.17
2018-12-31T17:13:42.690Z,25.17
2018-12-31T17:16:11.210Z,31.07
2018-12-31T17:18:39.716Z,23.67
2018-12-31T17:21:08.146Z,26.53
2018-12-31T17:23:36.625Z,23.20
2018-12-31T17:26:05.157Z,23.20
2018-12-31T17:28:33.586Z,23.93
2018-12-31T17:31:02.071Z,23.77
2018-12-31T17:33:30.499Z,25.87
2018-12-31T17:35:58.932Z,24.10
2018-12-31T17:38:27.387Z,25.90
2018-12-31T17:40:56.116Z,24.20
2018-12-31T17:43:24.934Z,24.87
2018-12-31T17:45:53.365Z,24.20
2018-12-31T17:48:21.872Z,23.97
2018-12-31T17:50:50.336Z,25.17
2018-12-31T17:53:18.781Z,24.30
2018-12-31T17:55:47.244Z,27.30
2018-12-31T17:58:15.675Z,27.63
2018-12-31T18:00:44.334Z,27.60
2018-12-31T18:03:13.747Z,29.50
2018-12-31T18:05:42.227Z,27.73
2018-12-31T18:08:10.722Z,30.13
2018-12-31T18:10:39.304Z,28.83
2018-12-31T18:13:07.845Z,24.57
2018-12-31T18:15:36.366Z,25.10
2018-12-31T18:18:04.963Z,25.87
2018-12-31T18:20:33.675Z,25.23
2018-12-31T18:23:02.295Z,25.97
2018-12-31T18:25:31.110Z,26.47
2018-12-31T18:27:59.605Z,29.57
2018-12-31T18:30:28.111Z,27.20
2018-12-31T18:32:56.802Z,30.07
2018-12-31T18:35:25.436Z,28.17
2018-12-31T18:37:53.918Z,22.37
2018-12-31T18:40:22.484Z,27.33
2018-12-31T18:42:50.958Z,26.73
2018-12-31T18:45:19.776Z,29.83
2018-12-31T18:47:48.226Z,28.90
2018-12-31T18:50:16.707Z,27.40
2018-12-31T18:52:45.158Z,28.90
2018-12-31T18:55:13.747Z,28.87
2018-12-31T18:57:42.585Z,28.53
2018-12-31T19:00:11.357Z,26.53
2018-12-31T19:02:40.019Z,31.47
2018-12-31T19:05:08.451Z,30.53
2018-12-31T19:07:36.932Z,31.73
2018-12-31T19:10:06.199Z,27.90
2018-12-31T19:12:34.681Z,30.00
2018-12-31T19:15:03.218Z,31.60
2018-12-31T19:17:31.686Z,32.00
2018-12-31T19:20:00.355Z,29.23
2018-12-31T19:22:28.824Z,26.93
2018-12-31T19:24:57.809Z,26.30
2018-12-31T19:27:26.273Z,23.53
2018-12-31T19:29:54.721Z,24.40
2018-12-31T19:32:23.325Z,24.07
2018-12-31T19:34:51.932Z,19.53
2018-12-31T19:37:20.449Z,23.20
2018-12-31T19:39:49.094Z,21.20
2018-12-31T19:42:17.821Z,23.47
2018-12-31T19:44:46.429Z,21.37
2018-12-31T19:47:14.981Z,24.77
2018-12-31T19:49:43.446Z,28.83
2018-12-31T19:52:12.043Z,28.27
2018-12-31T19:54:40.737Z,26.10
2018-12-31T19:57:09.321Z,22.70
2018-12-31T19:59:38.047Z,24.50
2018-12-31T20:02:06.533Z,22.70
2018-12-31T20:04:35.270Z,22.83
2018-12-31T20:07:03.800Z,25.30
2018-12-31T20:09:32.301Z,42.73
2018-12-31T20:12:00.721Z,33.13
2018-12-31T20:14:29.269Z,24.33
2018-12-31T20:16:57.856Z,22.97
2018-12-31T20:19:26.479Z,23.87
2018-12-31T20:21:55.001Z,23.53
2018-12-31T20:24:23.607Z,22.20
2018-12-31T20:26:52.175Z,23.33
2018-12-31T20:29:20.719Z,22.83
2018-12-31T20:31:49.459Z,23.17
2018-12-31T20:34:19.649Z,22.13
2018-12-31T20:36:48.142Z,20.40
2018-12-31T20:39:16.726Z,20.17
2018-12-31T20:41:46.900Z,19.23
2018-12-31T20:44:15.338Z,17.70
2018-12-31T20:46:43.803Z,17.40
2018-12-31T20:49:12.325Z,17.50
2018-12-31T20:51:40.921Z,17.20
2018-12-31T20:54:09.395Z,16.23
2018-12-31T20:56:37.894Z,15.30
2018-12-31T20:59:06.379Z,16.20
2018-12-31T21:01:34.824Z,18.33
2018-12-31T21:04:03.376Z,18.57
2018-12-31T21:06:31.908Z,17.07
2018-12-31T21:09:00.499Z,15.57
2018-12-31T21:11:29.032Z,19.27
2018-12-31T21:13:57.487Z,14.57
2018-12-31T21:16:27.806Z,14.90
2018-12-31T21:18:56.389Z,18.70
2018-12-31T21:21:24.900Z,16.83
2018-12-31T21:23:53.414Z,15.83
2018-12-31T21:26:22.047Z,18.50
2018-12-31T21:28:50.716Z,18.13
2018-12-31T21:31:19.298Z,17.87
2018-12-31T21:33:47.896Z,17.17
2018-12-31T21:36:17.492Z,18.53
2018-12-31T21:38:45.940Z,19.67
2018-12-31T21:41:14.482Z,18.77
2018-12-31T21:43:43.070Z,20.77
2018-12-31T21:46:11.666Z,22.87
2018-12-31T21:48:40.273Z,18.93
2018-12-31T21:51:08.798Z,21.20
2018-12-31T21:53:37.673Z,17.73
2018-12-31T21:56:06.243Z,19.87
2018-12-31T21:58:34.815Z,21.03
2018-12-31T22:01:03.237Z,21.40
2018-12-31T22:03:31.696Z,22.27
2018-12-31T22:06:00.209Z,19.63
2018-12-31T22:08:28.750Z,18.83
2018-12-31T22:10:57.256Z,19.43
2018-12-31T22:13:25.832Z,20.17
2018-12-31T22:15:54.317Z,19.27
2018-12-31T22:18:22.813Z,22.53
2018-12-31T22:20:51.273Z,20.10
2018-12-31T22:23:19.727Z,18.17
2018-12-31T22:25:48.423Z,18.50
2018-12-31T22:28:16.880Z,21.40
2018-12-31T22:30:45.484Z,19.20
2018-12-31T22:33:14.586Z,20.87
2018-12-31T22:35:43.156Z,21.33
2018-12-31T22:38:11.677Z,23.13
2018-12-31T22:40:40.142Z,20.67
2018-12-31T22:43:09.532Z,18.17
2018-12-31T22:45:38.073Z,17.73
2018-12-31T22:48:06.615Z,18.73
2018-12-31T22:50:35.135Z,17.93
2018-12-31T22:53:03.645Z,17.47
2018-12-31T22:55:32.271Z,17.57
2018-12-31T22:58:00.749Z,18.17
2018-12-31T23:00:29.968Z,19.63
2018-12-31T23:02:58.418Z,22.53
2018-12-31T23:05:27.084Z,29.70
2018-12-31T23:07:55.579Z,29.10
2018-12-31T23:10:24.088Z,30.27
2018-12-31T23:12:52.677Z,40.40
2018-12-31T23:15:21.515Z,46.67
2018-12-31T23:17:50.211Z,54.80
2018-12-31T23:20:18.673Z,62.07
2018-12-31T23:22:48.265Z,47.57
2018-12-31T23:25:16.854Z,89.40
2018-12-31T23:27:45.435Z,59.63
2018-12-31T23:30:13.976Z,57.93
2018-12-31T23:32:42.518Z,51.03
2018-12-31T23:35:11.045Z,45.83
2018-12-31T23:37:40.097Z,39.67
2018-12-31T23:40:09.597Z,37.57
2018-12-31T23:42:38.069Z,35.27
2018-12-31T23:45:09.348Z,34.43
2018-12-31T23:47:37.949Z,28.87
2018-12-31T23:50:08.891Z,29.17
2018-12-31T23:52:37.333Z,33.17
2018-12-31T23:55:07.142Z,26.63
2018-12-31T23:57:35.709Z,24.70
